createdAt,value
2018-01-22T00:02:04.389Z,27.30
2018-01-22T00:04:33.431Z,26.37
2018-01-22T00:07:01.916Z,27.90
2018-01-22T00:09:30.192Z,33.93
2018-01-22T00:11:58.479Z,30.70
2018-01-22T00:14:26.784Z,28.27
2018-01-22T00:16:55.072Z,19.13
2018-01-22T00:19:24.101Z,27.67
2018-01-22T00:21:52.399Z,25.33
2018-01-22T00:24:20.695Z,23.47
2018-01-22T00:26:50.486Z,22.50
2018-01-22T00:29:18.776Z,22.90
2018-01-22T00:31:47.079Z,22.23
2018-01-22T00:34:16.159Z,30.00
2018-01-22T00:36:45.203Z,21.00
2018-01-22T00:39:13.501Z,26.37
2018-01-22T00:41:41.793Z,24.30
2018-01-22T00:44:10.077Z,26.23
2018-01-22T00:46:38.359Z,27.37
2018-01-22T00:49:06.728Z,25.70
2018-01-22T00:51:35.005Z,21.60
2018-01-22T00:54:03.280Z,19.17
2018-01-22T00:56:31.556Z,27.43
2018-01-22T00:58:59.858Z,23.83
2018-01-22T01:01:28.105Z,20.80
2018-01-22T01:03:56.400Z,21.50
2018-01-22T01:06:24.664Z,18.37
2018-01-22T01:08:52.965Z,18.20
2018-01-22T01:11:21.426Z,21.90
2018-01-22T01:13:49.675Z,21.60
2018-01-22T01:16:17.984Z,18.23
2018-01-22T01:18:46.235Z,20.97
2018-01-22T01:21:14.637Z,23.40
2018-01-22T01:23:42.924Z,22.73
2018-01-22T01:26:12.225Z,22.83
2018-01-22T01:28:40.491Z,23.67
2018-01-22T01:31:08.787Z,22.20
2018-01-22T01:33:38.560Z,17.97
2018-01-22T01:36:06.839Z,16.63
2018-01-22T01:38:35.106Z,17.80
2018-01-22T01:41:03.406Z,16.03
2018-01-22T01:43:31.688Z,19.20
2018-01-22T01:45:59.967Z,24.97
2018-01-22T01:48:29.750Z,20.47
2018-01-22T01:50:58.039Z,17.37
2018-01-22T01:53:26.407Z,18.73
2018-01-22T01:55:54.818Z,22.00
2018-01-22T01:58:23.068Z,21.07
2018-01-22T02:00:51.367Z,21.27
2018-01-22T02:03:19.624Z,17.33
2018-01-22T02:05:47.908Z,18.23
2018-01-22T02:08:16.167Z,19.33
2018-01-22T02:10:44.579Z,18.83
2018-01-22T02:13:12.832Z,20.13
2018-01-22T02:15:41.125Z,19.00
2018-01-22T02:18:09.512Z,18.17
2018-01-22T02:20:37.783Z,17.40
2018-01-22T02:23:06.081Z,21.67
2018-01-22T02:25:34.342Z,19.33
2018-01-22T02:28:02.637Z,23.53
2018-01-22T02:30:30.896Z,20.70
2018-01-22T02:32:59.192Z,21.23
2018-01-22T02:35:28.961Z,22.43
2018-01-22T02:37:57.244Z,20.87
2018-01-22T02:40:25.553Z,19.20
2018-01-22T02:42:53.916Z,20.67
2018-01-22T02:45:22.180Z,21.30
2018-01-22T02:47:50.577Z,15.57
2018-01-22T02:50:18.848Z,19.23
2018-01-22T02:52:47.127Z,24.80
2018-01-22T02:55:15.404Z,22.47
2018-01-22T02:57:43.779Z,15.93
2018-01-22T03:00:12.068Z,21.27
2018-01-22T03:02:40.340Z,18.03
2018-01-22T03:05:08.635Z,19.10
2018-01-22T03:07:38.584Z,26.60
2018-01-22T03:10:06.969Z,13.97
2018-01-22T03:12:35.246Z,19.13
2018-01-22T03:15:03.505Z,15.93
2018-01-22T03:17:32.555Z,18.13
2018-01-22T03:20:00.823Z,18.67
2018-01-22T03:22:29.092Z,21.40
2018-01-22T03:24:57.374Z,18.37
2018-01-22T03:27:25.640Z,15.77
2018-01-22T03:29:53.961Z,20.43
2018-01-22T03:32:22.207Z,24.07
2018-01-22T03:34:50.487Z,19.80
2018-01-22T03:37:18.755Z,26.23
2018-01-22T03:39:47.068Z,20.83
2018-01-22T03:42:15.340Z,20.90
2018-01-22T03:44:43.627Z,20.67
2018-01-22T03:47:11.897Z,19.70
2018-01-22T03:49:40.188Z,24.30
2018-01-22T03:52:09.228Z,21.50
2018-01-22T03:54:37.515Z,18.90
2018-01-22T03:57:05.956Z,22.20
2018-01-22T03:59:35.703Z,19.90
2018-01-22T04:02:03.985Z,23.20
2018-01-22T04:04:32.264Z,20.17
2018-01-22T04:07:00.559Z,25.07
2018-01-22T04:09:28.823Z,23.23
2018-01-22T04:11:57.111Z,22.43
2018-01-22T04:14:25.395Z,25.30
2018-01-22T04:16:53.680Z,25.50
2018-01-22T04:19:21.954Z,25.23
2018-01-22T04:21:50.252Z,25.37
2018-01-22T04:24:19.290Z,26.60
2018-01-22T04:26:47.582Z,25.90
2018-01-22T04:29:15.851Z,23.83
2018-01-22T04:31:44.136Z,23.70
2018-01-22T04:34:12.410Z,24.10
2018-01-22T04:36:40.705Z,20.10
2018-01-22T04:39:08.972Z,21.40
2018-01-22T04:41:37.231Z,24.10
2018-01-22T04:44:05.523Z,27.07
2018-01-22T04:46:33.783Z,24.77
2018-01-22T04:49:02.108Z,24.43
2018-01-22T04:51:30.364Z,28.27
2018-01-22T04:53:58.648Z,28.40
2018-01-22T04:56:26.912Z,26.50
2018-01-22T04:58:55.194Z,20.70
2018-01-22T05:01:23.452Z,25.63
2018-01-22T05:03:51.743Z,26.30
2018-01-22T05:06:20.032Z,31.47
2018-01-22T05:08:48.321Z,26.10
2018-01-22T05:11:16.591Z,27.40
2018-01-22T05:13:44.879Z,22.70
2018-01-22T05:16:13.911Z,22.20
2018-01-22T05:18:42.192Z,28.93
2018-01-22T05:21:10.462Z,25.13
2018-01-22T05:23:38.788Z,29.90
2018-01-22T05:26:07.067Z,29.37
2018-01-22T05:28:35.386Z,23.83
2018-01-22T05:31:04.417Z,30.60
2018-01-22T05:33:32.680Z,26.40
2018-01-22T05:36:00.982Z,30.63
2018-01-22T05:38:29.244Z,30.40
2018-01-22T05:40:57.528Z,36.70
2018-01-22T05:43:25.821Z,25.77
2018-01-22T05:45:54.211Z,32.97
2018-01-22T05:48:22.492Z,23.70
2018-01-22T05:50:50.779Z,25.70
2018-01-22T05:53:20.573Z,25.17
2018-01-22T05:55:48.864Z,33.43
2018-01-22T05:58:17.897Z,31.40
2018-01-22T06:00:46.296Z,20.83
2018-01-22T06:03:14.560Z,20.20
2018-01-22T06:05:42.852Z,25.43
2018-01-22T06:08:11.155Z,24.53
2018-01-22T06:10:39.437Z,23.27
2018-01-22T06:13:07.703Z,24.00
2018-01-22T06:15:36.000Z,21.83
2018-01-22T06:18:04.325Z,26.80
2018-01-22T06:20:32.598Z,22.50
2018-01-22T06:23:00.880Z,22.63
2018-01-22T06:25:29.147Z,24.37
2018-01-22T06:27:57.445Z,30.57
2018-01-22T06:30:25.723Z,26.07
2018-01-22T06:32:54.002Z,30.33
2018-01-22T06:35:22.276Z,17.17
2018-01-22T06:37:50.581Z,24.43
2018-01-22T06:40:18.866Z,22.40
2018-01-22T06:42:47.960Z,24.43
2018-01-22T06:45:16.336Z,28.93
2018-01-22T06:47:44.618Z,28.70
2018-01-22T06:50:12.896Z,18.67
2018-01-22T06:52:41.271Z,22.13
2018-01-22T06:55:09.551Z,21.90
2018-01-22T06:57:37.840Z,21.47
2018-01-22T07:00:06.925Z,23.43
2018-01-22T07:02:35.240Z,26.70
2018-01-22T07:05:04.264Z,25.70
2018-01-22T07:07:32.540Z,29.93
2018-01-22T07:10:00.835Z,22.73
2018-01-22T07:12:29.095Z,19.30
2018-01-22T07:14:57.390Z,23.17
2018-01-22T07:17:25.650Z,23.60
2018-01-22T07:19:53.959Z,27.37
2018-01-22T07:22:22.347Z,21.57
2018-01-22T07:24:50.652Z,37.70
2018-01-22T07:27:19.675Z,38.57
2018-01-22T07:29:48.020Z,21.57
2018-01-22T07:32:16.272Z,18.23
2018-01-22T07:34:44.614Z,20.67
2018-01-22T07:37:12.912Z,24.90
2018-01-22T07:39:41.326Z,22.80
2018-01-22T07:42:09.649Z,19.13
2018-01-22T07:44:38.056Z,17.63
2018-01-22T07:47:06.347Z,17.37
2018-01-22T07:49:34.726Z,21.47
2018-01-22T07:52:03.002Z,24.80
2018-01-22T07:54:31.292Z,22.53
2018-01-22T07:57:00.361Z,19.30
2018-01-22T07:59:28.631Z,20.80
2018-01-22T08:01:57.019Z,26.70
2018-01-22T08:04:25.296Z,23.67
2018-01-22T08:06:53.572Z,19.80
2018-01-22T08:09:21.851Z,17.63
2018-01-22T08:11:50.209Z,21.37
2018-01-22T08:14:19.220Z,19.83
2018-01-22T08:16:47.603Z,21.47
2018-01-22T08:19:15.857Z,27.60
2018-01-22T08:21:44.267Z,19.37
2018-01-22T08:24:12.516Z,17.40
2018-01-22T08:26:40.800Z,18.00
2018-01-22T08:29:09.073Z,28.70
2018-01-22T08:31:37.372Z,19.63
2018-01-22T08:34:05.660Z,25.43
2018-01-22T08:36:33.949Z,21.10
2018-01-22T08:39:02.975Z,21.90
2018-01-22T08:41:31.279Z,26.30
2018-01-22T08:43:59.576Z,23.63
2018-01-22T08:46:27.840Z,20.20
2018-01-22T08:48:56.132Z,22.40
2018-01-22T08:51:24.400Z,23.93
2018-01-22T08:53:53.000Z,19.93
2018-01-22T08:56:21.255Z,18.40
2018-01-22T08:58:49.644Z,20.93
2018-01-22T09:01:17.911Z,22.10
2018-01-22T09:03:46.200Z,21.33
2018-01-22T09:06:14.463Z,21.30
2018-01-22T09:08:42.754Z,20.53
2018-01-22T09:11:11.016Z,21.67
2018-01-22T09:13:39.378Z,23.73
2018-01-22T09:16:08.412Z,20.60
2018-01-22T09:18:36.678Z,23.60
2018-01-22T09:21:05.060Z,22.67
2018-01-22T09:23:33.320Z,25.03
2018-01-22T09:26:01.596Z,21.70
2018-01-22T09:28:29.863Z,18.30
2018-01-22T09:30:58.156Z,22.37
2018-01-22T09:33:26.446Z,23.30
2018-01-22T09:35:54.826Z,19.13
2018-01-22T09:38:23.082Z,18.97
2018-01-22T09:40:51.380Z,25.43
2018-01-22T09:43:19.659Z,20.07
2018-01-22T09:45:47.959Z,18.43
2018-01-22T09:48:16.993Z,23.77
2018-01-22T09:50:45.320Z,25.10
2018-01-22T09:53:13.686Z,32.50
2018-01-22T09:55:41.963Z,30.80
2018-01-22T09:58:11.017Z,20.73
2018-01-22T10:00:39.272Z,22.03
2018-01-22T10:03:08.328Z,24.17
2018-01-22T10:05:36.575Z,20.50
2018-01-22T10:08:04.865Z,18.07
2018-01-22T10:10:33.164Z,22.40
2018-01-22T10:13:01.643Z,21.33
2018-01-22T10:15:29.892Z,23.30
2018-01-22T10:17:58.178Z,23.03
2018-01-22T10:20:26.435Z,22.47
2018-01-22T10:22:54.727Z,27.27
2018-01-22T10:25:22.995Z,24.53
2018-01-22T10:27:51.289Z,25.40
2018-01-22T10:30:19.554Z,22.30
2018-01-22T10:32:47.860Z,24.90
2018-01-22T10:35:16.134Z,24.60
2018-01-22T10:37:44.438Z,24.03
2018-01-22T10:40:12.706Z,24.23
2018-01-22T10:42:40.965Z,31.60
2018-01-22T10:45:09.248Z,21.50
2018-01-22T10:47:37.515Z,25.43
2018-01-22T10:50:05.800Z,22.50
2018-01-22T10:52:34.177Z,25.67
2018-01-22T10:55:02.445Z,19.20
2018-01-22T10:57:30.722Z,28.60
2018-01-22T10:59:59.012Z,21.63
2018-01-22T11:02:27.295Z,25.70
2018-01-22T11:04:55.661Z,21.90
2018-01-22T11:07:23.938Z,23.63
2018-01-22T11:09:52.234Z,22.80
2018-01-22T11:12:21.298Z,22.50
2018-01-22T11:14:49.604Z,23.47
2018-01-22T11:17:17.973Z,17.33
2018-01-22T11:19:46.287Z,19.23
2018-01-22T11:22:15.299Z,21.63
2018-01-22T11:24:43.622Z,18.37
2018-01-22T11:27:11.901Z,24.30
2018-01-22T11:29:40.150Z,21.60
2018-01-22T11:32:08.436Z,24.13
2018-01-22T11:34:36.710Z,19.47
2018-01-22T11:37:04.996Z,22.07
2018-01-22T11:39:33.263Z,23.57
2018-01-22T11:42:01.546Z,21.83
2018-01-22T11:44:29.815Z,17.73
2018-01-22T11:46:58.218Z,20.63
2018-01-22T11:49:26.512Z,27.40
2018-01-22T11:51:54.795Z,20.43
2018-01-22T11:54:23.063Z,19.90
2018-01-22T11:56:52.880Z,23.03
2018-01-22T11:59:21.237Z,20.63
2018-01-22T12:01:49.524Z,22.03
2018-01-22T12:04:17.808Z,19.10
2018-01-22T12:06:46.098Z,20.73
2018-01-22T12:09:14.363Z,21.53
2018-01-22T12:11:42.660Z,18.30
2018-01-22T12:14:11.723Z,15.97
2018-01-22T12:16:40.004Z,23.83
2018-01-22T12:19:08.395Z,24.13
2018-01-22T12:21:38.179Z,19.27
2018-01-22T12:24:06.467Z,23.70
2018-01-22T12:26:34.732Z,17.00
2018-01-22T12:29:03.025Z,29.07
2018-01-22T12:31:31.300Z,43.17
2018-01-22T12:33:59.573Z,25.73
2018-01-22T12:36:27.844Z,20.50
2018-01-22T12:38:56.130Z,16.27
2018-01-22T12:41:24.408Z,22.85
2018-01-22T12:43:52.891Z,19.13
2018-01-22T12:46:21.145Z,18.47
2018-01-22T12:48:49.496Z,21.53
2018-01-22T12:51:17.743Z,16.80
2018-01-22T12:53:46.817Z,21.00
2018-01-22T12:56:15.085Z,20.90
2018-01-22T12:58:43.474Z,24.13
2018-01-22T13:01:11.729Z,18.90
2018-01-22T13:03:40.764Z,22.43
2018-01-22T13:06:09.800Z,16.73
2018-01-22T13:08:38.115Z,20.60
2018-01-22T13:11:06.398Z,16.07
2018-01-22T13:13:34.671Z,24.80
2018-01-22T13:16:03.113Z,18.33
2018-01-22T13:18:31.394Z,24.17
2018-01-22T13:20:59.810Z,22.67
2018-01-22T13:23:28.056Z,22.80
2018-01-22T13:25:56.343Z,19.70
2018-01-22T13:28:24.642Z,16.57
2018-01-22T13:30:53.011Z,18.63
2018-01-22T13:33:21.289Z,17.17
2018-01-22T13:35:49.575Z,17.60
2018-01-22T13:38:17.853Z,16.87
2018-01-22T13:40:51.787Z,21.40
2018-01-22T13:43:20.807Z,18.43
2018-01-22T13:45:49.087Z,18.73
2018-01-22T13:48:17.454Z,16.90
2018-01-22T13:50:46.508Z,16.37
2018-01-22T13:53:14.763Z,15.83
2018-01-22T13:55:43.028Z,20.30
2018-01-22T13:58:11.441Z,14.17
2018-01-22T14:00:39.714Z,17.10
2018-01-22T14:03:07.990Z,19.80
2018-01-22T14:05:36.255Z,14.90
2018-01-22T14:08:04.553Z,18.97
2018-01-22T14:10:32.827Z,18.03
2018-01-22T14:13:01.109Z,19.77
2018-01-22T14:15:30.886Z,15.90
2018-01-22T14:17:59.206Z,13.93
2018-01-22T14:20:27.470Z,18.87
2018-01-22T14:22:55.760Z,16.57
2018-01-22T14:25:24.037Z,15.23
2018-01-22T14:27:53.094Z,16.77
2018-01-22T14:30:21.407Z,16.33
2018-01-22T14:32:49.703Z,19.70
2018-01-22T14:35:18.732Z,19.10
2018-01-22T14:37:47.047Z,18.93
2018-01-22T14:40:15.322Z,12.83
2018-01-22T14:42:43.612Z,15.90
2018-01-22T14:45:11.983Z,14.63
2018-01-22T14:47:40.351Z,15.10
2018-01-22T14:50:08.639Z,18.67
2018-01-22T14:52:36.899Z,18.60
2018-01-22T14:55:05.193Z,21.57
2018-01-22T14:57:33.457Z,15.40
2018-01-22T15:00:01.767Z,20.50
2018-01-22T15:02:30.027Z,20.90
2018-01-22T15:04:58.312Z,18.23
2018-01-22T15:07:26.576Z,16.03
2018-01-22T15:09:54.864Z,12.20
2018-01-22T15:12:23.132Z,14.87
2018-01-22T15:14:51.419Z,21.47
2018-01-22T15:17:19.686Z,19.70
2018-01-22T15:19:47.967Z,18.40
2018-01-22T15:22:16.240Z,15.00
2018-01-22T15:24:44.644Z,16.70
2018-01-22T15:27:13.720Z,20.27
2018-01-22T15:29:42.024Z,23.07
2018-01-22T15:32:11.097Z,12.10
2018-01-22T15:34:39.776Z,15.73
2018-01-22T15:37:08.258Z,14.50
2018-01-22T15:39:36.540Z,16.03
2018-01-22T15:42:04.816Z,18.23
2018-01-22T15:44:33.193Z,34.70
2018-01-22T15:47:01.483Z,16.13
2018-01-22T15:49:29.741Z,13.13
2018-01-22T15:51:58.025Z,14.07
2018-01-22T15:54:26.288Z,12.13
2018-01-22T15:56:54.576Z,11.70
2018-01-22T15:59:22.880Z,20.03
2018-01-22T16:01:51.926Z,10.27
2018-01-22T16:04:20.178Z,10.53
2018-01-22T16:06:48.480Z,12.70
2018-01-22T16:09:16.788Z,12.30
2018-01-22T16:11:45.048Z,9.30
2018-01-22T16:14:13.329Z,14.60
2018-01-22T16:16:41.659Z,16.10
2018-01-22T16:19:10.688Z,12.07
2018-01-22T16:21:38.951Z,12.60
2018-01-22T16:24:07.369Z,11.87
2018-01-22T16:26:35.616Z,11.47
2018-01-22T16:29:03.904Z,16.40
2018-01-22T16:31:32.173Z,13.60
2018-01-22T16:34:00.450Z,13.90
2018-01-22T16:36:28.725Z,11.07
2018-01-22T16:38:57.040Z,15.07
2018-01-22T16:41:25.303Z,11.43
2018-01-22T16:43:53.708Z,21.23
2018-01-22T16:46:22.783Z,14.27
2018-01-22T16:48:51.172Z,14.63
2018-01-22T16:51:19.547Z,16.27
2018-01-22T16:53:47.818Z,16.63
2018-01-22T16:56:16.097Z,16.57
2018-01-22T16:58:44.380Z,25.80
2018-01-22T17:01:13.403Z,16.37
2018-01-22T17:03:42.462Z,13.07
2018-01-22T17:06:10.923Z,15.17
2018-01-22T17:08:39.347Z,21.87
2018-01-22T17:11:08.424Z,24.10
2018-01-22T17:13:36.807Z,19.40
2018-01-22T17:16:05.075Z,20.43
2018-01-22T17:18:33.357Z,20.53
2018-01-22T17:21:01.644Z,21.43
2018-01-22T17:23:30.683Z,20.20
2018-01-22T17:25:58.964Z,22.13
2018-01-22T17:28:27.283Z,22.70
2018-01-22T17:30:55.540Z,17.30
2018-01-22T17:33:23.848Z,24.77
2018-01-22T17:35:52.116Z,25.17
2018-01-22T19:00:19.759Z,20.97
2018-01-22T19:02:48.040Z,29.07
2018-01-22T19:05:17.083Z,36.40
2018-01-22T19:07:45.395Z,22.93
2018-01-22T19:10:13.656Z,32.40
2018-01-22T19:12:41.949Z,28.40
2018-01-22T19:15:10.223Z,32.73
2018-01-22T19:17:38.515Z,27.30
2018-01-22T19:20:06.809Z,33.93
2018-01-22T19:22:35.874Z,25.70
2018-01-22T19:25:04.149Z,32.03
2018-01-22T19:27:32.448Z,27.87
2018-01-22T19:30:00.722Z,31.00
2018-01-22T19:32:29.105Z,26.73
2018-01-22T19:34:57.382Z,29.13
2018-01-22T19:37:25.648Z,23.87
2018-01-22T19:39:53.932Z,30.27
2018-01-22T19:42:23.839Z,25.93
2018-01-22T19:44:52.214Z,33.07
2018-01-22T19:47:20.498Z,38.07
2018-01-22T19:49:48.783Z,31.40
2018-01-22T19:52:17.087Z,31.10
2018-01-22T19:54:45.395Z,26.90
2018-01-22T19:57:13.659Z,27.30
2018-01-22T19:59:41.963Z,32.70
2018-01-22T20:02:10.232Z,31.53
2018-01-22T20:04:38.525Z,24.70
2018-01-22T20:07:06.821Z,39.77
2018-01-22T20:09:35.246Z,35.83
2018-01-22T20:12:03.479Z,34.00
2018-01-22T20:14:31.764Z,24.57
2018-01-22T20:17:01.539Z,25.70
2018-01-22T20:19:30.038Z,32.47
2018-01-22T20:21:58.287Z,31.80
2018-01-22T20:24:26.609Z,24.53
2018-01-22T20:26:54.844Z,34.50
2018-01-22T20:29:23.161Z,23.33
2018-01-22T20:31:51.503Z,29.53
2018-01-22T20:34:19.774Z,43.60
2018-01-22T20:36:48.051Z,32.60
2018-01-22T20:39:16.354Z,28.93
2018-01-22T20:41:44.626Z,33.97
2018-01-22T20:44:12.892Z,32.67
2018-01-22T20:46:41.394Z,27.83
2018-01-22T20:49:09.667Z,25.37
2018-01-22T20:51:38.046Z,32.70
2018-01-22T20:54:06.320Z,31.70
2018-01-22T20:56:34.600Z,34.97
2018-01-22T20:59:02.882Z,25.37
2018-01-22T21:01:31.177Z,30.43
2018-01-22T21:04:00.217Z,29.57
2018-01-22T21:06:28.529Z,26.73
2018-01-22T21:08:56.909Z,32.93
2018-01-22T21:11:25.175Z,28.80
2018-01-22T21:13:53.462Z,27.33
2018-01-22T21:16:21.735Z,31.77
2018-01-22T21:18:50.022Z,28.63
2018-01-22T21:21:18.295Z,26.10
2018-01-22T21:23:46.597Z,29.80
2018-01-22T21:26:15.630Z,24.27
2018-01-22T21:28:43.915Z,29.67
2018-01-22T21:31:12.183Z,27.73
2018-01-22T21:33:40.456Z,26.53
2018-01-22T21:36:08.760Z,22.33
2018-01-22T21:38:37.064Z,27.10
2018-01-22T21:41:05.434Z,27.83
2018-01-22T21:43:33.708Z,24.73
2018-01-22T21:46:02.003Z,41.60
2018-01-22T21:48:31.040Z,32.13
2018-01-22T21:50:59.328Z,30.43
2018-01-22T21:53:27.597Z,28.43
2018-01-22T21:55:55.892Z,31.97
2018-01-22T21:58:24.160Z,35.77
2018-01-22T22:00:52.445Z,29.50
2018-01-22T22:03:20.736Z,27.03
2018-01-22T22:05:49.020Z,36.30
2018-01-22T22:08:17.294Z,29.57
2018-01-22T22:10:46.547Z,31.33
2018-01-22T22:13:14.824Z,29.63
2018-01-22T22:15:44.075Z,29.80
2018-01-22T22:18:12.336Z,33.03
2018-01-22T22:20:40.633Z,34.50
2018-01-22T22:23:08.891Z,27.53
2018-01-22T22:25:37.167Z,41.17
2018-01-22T22:28:05.440Z,30.67
2018-01-22T22:30:33.708Z,27.80
2018-01-22T22:33:02.016Z,41.77
2018-01-22T22:35:30.306Z,34.73
2018-01-22T22:37:58.598Z,28.70
2018-01-22T22:40:27.654Z,27.93
2018-01-22T22:42:55.928Z,26.87
2018-01-22T22:45:24.204Z,31.07
2018-01-22T22:47:52.478Z,34.60
2018-01-22T22:50:20.746Z,32.63
2018-01-22T22:52:49.027Z,32.60
2018-01-22T22:55:17.332Z,27.73
2018-01-22T22:57:45.705Z,34.40
2018-01-22T23:00:14.774Z,27.33
2018-01-22T23:02:43.049Z,35.20
2018-01-22T23:05:11.321Z,31.30
2018-01-22T23:07:39.608Z,28.57
2018-01-22T23:10:07.870Z,26.20
2018-01-22T23:12:36.162Z,31.57
2018-01-22T23:15:04.423Z,33.60
2018-01-22T23:17:32.688Z,32.67
2018-01-22T23:20:01.013Z,29.00
2018-01-22T23:22:29.400Z,31.10
2018-01-22T23:24:57.674Z,36.00
2018-01-22T23:27:25.952Z,36.53
2018-01-22T23:29:54.218Z,32.93
2018-01-22T23:32:22.488Z,31.83
2018-01-22T23:34:50.785Z,36.97
2018-01-22T23:37:19.060Z,31.83
2018-01-22T23:39:47.343Z,28.20
2018-01-22T23:42:15.599Z,34.53
2018-01-22T23:44:43.994Z,38.20
2018-01-22T23:47:12.239Z,35.90
2018-01-22T23:49:40.498Z,31.33
2018-01-22T23:52:08.823Z,35.20
2018-01-22T23:54:37.087Z,36.00
2018-01-22T23:57:05.371Z,30.87
2018-01-22T23:59:33.639Z,33.87
